createdAt,value
2019-03-20T00:00:09.597Z,100454.20
2019-03-20T00:02:36.297Z,100463.58
2019-03-20T00:05:04.272Z,100468.32
2019-03-20T00:07:31.386Z,100460.23
2019-03-20T00:09:58.094Z,100458.30
2019-03-20T00:12:24.819Z,100460.04
2019-03-20T00:14:51.846Z,100451.67
2019-03-20T00:17:18.845Z,100451.67
2019-03-20T00:19:45.589Z,100453.33
2019-03-20T00:22:12.322Z,100454.34
2019-03-20T00:24:39.135Z,100455.70
2019-03-20T00:27:05.865Z,100451.05
2019-03-20T00:29:33.073Z,100457.20
2019-03-20T00:31:59.845Z,100457.28
2019-03-20T00:34:26.585Z,100451.88
2019-03-20T00:36:55.309Z,100454.97
2019-03-20T00:39:24.938Z,100457.83
2019-03-20T00:41:51.635Z,100463.63
2019-03-20T00:44:18.358Z,100458.55
2019-03-20T00:46:45.076Z,100461.22
2019-03-20T00:49:11.789Z,100464.54
2019-03-20T00:51:38.500Z,100455.89
2019-03-20T00:54:05.244Z,100458.69
2019-03-20T00:56:32.118Z,100468.79
2019-03-20T00:59:00.724Z,100457.34
2019-03-20T01:01:27.585Z,100455.32
2019-03-20T01:03:54.324Z,100459.80
2019-03-20T01:06:21.040Z,100456.19
2019-03-20T01:08:47.731Z,100458.98
2019-03-20T01:11:14.756Z,100461.48
2019-03-20T01:13:44.353Z,100468.16
2019-03-20T01:16:11.077Z,100461.67
2019-03-20T01:18:37.782Z,100451.98
2019-03-20T01:21:04.513Z,100451.98
2019-03-20T01:23:31.580Z,100458.45
2019-03-20T01:25:58.333Z,100449.70
2019-03-20T01:28:26.269Z,100448.61
2019-03-20T01:30:52.967Z,100444.48
2019-03-20T01:33:19.661Z,100446.57
2019-03-20T01:35:46.371Z,100439.33
2019-03-20T01:38:13.076Z,100439.48
2019-03-20T01:40:40.588Z,100444.80
2019-03-20T01:43:07.780Z,100430.23
2019-03-20T01:45:34.524Z,100435.08
2019-03-20T01:48:01.605Z,100436.84
2019-03-20T01:50:28.332Z,100430.38
2019-03-20T01:52:55.351Z,100436.02
2019-03-20T01:55:22.432Z,100433.86
2019-03-20T01:57:49.115Z,100439.97
2019-03-20T02:00:15.864Z,100432.39
2019-03-20T02:02:42.557Z,100426.42
2019-03-20T02:05:09.284Z,100430.30
2019-03-20T02:07:35.994Z,100439.77
2019-03-20T02:10:02.731Z,100437.70
2019-03-20T02:12:29.460Z,100441.67
2019-03-20T02:14:56.278Z,100443.73
2019-03-20T02:17:22.962Z,100453.67
2019-03-20T02:19:49.660Z,100445.19
2019-03-20T02:22:16.382Z,100446.64
2019-03-20T02:24:43.109Z,100446.67
2019-03-20T02:27:09.829Z,100454.50
2019-03-20T02:29:39.372Z,100477.19
2019-03-20T02:32:06.072Z,100448.59
2019-03-20T02:34:32.786Z,100446.58
2019-03-20T02:37:01.017Z,100450.38
2019-03-20T02:39:27.724Z,100448.70
2019-03-20T02:41:54.454Z,100447.98
2019-03-20T02:44:21.145Z,100451.22
2019-03-20T02:46:47.863Z,100454.98
2019-03-20T02:49:14.580Z,100451.79
2019-03-20T02:51:43.199Z,100468.13
2019-03-20T02:54:09.898Z,100465.64
2019-03-20T02:56:36.763Z,100458.00
2019-03-20T02:59:03.480Z,100465.69
2019-03-20T03:01:30.999Z,100456.28
2019-03-20T03:04:01.327Z,100458.40
2019-03-20T03:06:28.078Z,100467.20
2019-03-20T03:08:54.799Z,100472.38
2019-03-20T03:11:21.513Z,100465.69
2019-03-20T03:13:48.613Z,100472.38
2019-03-20T03:16:15.343Z,100477.44
2019-03-20T03:18:42.070Z,100466.47
2019-03-20T03:21:08.758Z,100474.16
2019-03-20T03:23:35.440Z,100478.85
2019-03-20T03:26:02.288Z,100482.98
2019-03-20T03:28:28.985Z,100479.63
2019-03-20T03:30:56.065Z,100482.88
2019-03-20T03:33:22.800Z,100483.38
2019-03-20T03:35:49.509Z,100485.94
2019-03-20T03:38:16.184Z,100484.97
2019-03-20T03:40:42.900Z,100483.14
2019-03-20T03:43:09.638Z,100479.54
2019-03-20T03:45:36.432Z,100498.21
2019-03-20T03:48:03.158Z,100489.59
2019-03-20T03:50:29.912Z,100490.31
2019-03-20T03:52:56.642Z,100487.77
2019-03-20T03:55:23.351Z,100486.17
2019-03-20T03:57:50.090Z,100491.35
2019-03-20T04:00:16.799Z,100495.91
2019-03-20T04:02:43.540Z,100493.83
2019-03-20T04:05:11.953Z,100492.58
2019-03-20T04:07:38.650Z,100484.29
2019-03-20T04:10:07.123Z,100491.72
2019-03-20T04:12:33.859Z,100488.65
2019-03-20T04:15:00.564Z,100485.92
2019-03-20T04:17:29.558Z,100489.98
2019-03-20T04:19:56.231Z,100484.14
2019-03-20T04:22:22.953Z,100492.76
2019-03-20T04:24:49.979Z,100486.54
2019-03-20T04:27:16.687Z,100487.86
2019-03-20T04:29:43.459Z,100493.90
2019-03-20T04:32:10.164Z,100486.52
2019-03-20T04:34:37.214Z,100491.09
2019-03-20T04:37:04.251Z,100491.23
2019-03-20T04:39:30.974Z,100488.84
2019-03-20T04:41:59.950Z,100500.25
2019-03-20T04:44:26.661Z,100494.54
2019-03-20T04:46:53.717Z,100492.46
2019-03-20T04:49:23.188Z,100494.69
2019-03-20T04:51:50.032Z,100493.88
2019-03-20T04:54:16.719Z,100499.24
2019-03-20T04:56:43.470Z,100491.88
2019-03-20T04:59:10.198Z,100489.45
2019-03-20T05:01:39.274Z,100492.38
2019-03-20T05:04:06.102Z,100494.53
2019-03-20T05:06:32.836Z,100495.20
2019-03-20T05:08:59.585Z,100501.56
2019-03-20T05:11:26.281Z,100503.05
2019-03-20T05:13:53.403Z,100502.38
2019-03-20T05:16:20.107Z,100509.69
2019-03-20T05:18:46.815Z,100525.95
2019-03-20T05:21:13.640Z,100525.95
2019-03-20T05:23:40.352Z,100531.51
2019-03-20T05:26:07.083Z,100530.04
2019-03-20T05:28:33.804Z,100535.90
2019-03-20T05:31:00.512Z,100539.31
2019-03-20T05:33:29.310Z,100541.59
2019-03-20T05:35:56.012Z,100537.69
2019-03-20T05:38:22.752Z,100550.07
2019-03-20T05:40:49.676Z,100554.61
2019-03-20T05:43:16.636Z,100552.98
2019-03-20T05:45:43.635Z,100557.55
2019-03-20T05:48:10.350Z,100564.38
2019-03-20T05:50:37.066Z,100580.33
2019-03-20T05:53:03.756Z,100559.02
2019-03-20T05:55:30.467Z,100571.05
2019-03-20T05:58:02.739Z,100572.67
2019-03-20T06:00:31.074Z,100573.16
2019-03-20T06:02:58.359Z,100583.90
2019-03-20T06:05:25.285Z,100591.73
2019-03-20T06:07:52.048Z,100601.49
2019-03-20T06:10:21.638Z,100608.33
2019-03-20T06:12:48.694Z,100597.58
2019-03-20T06:15:15.417Z,100593.03
2019-03-20T06:17:42.137Z,100593.19
2019-03-20T06:20:08.894Z,100603.45
2019-03-20T06:22:35.572Z,100598.89
2019-03-20T06:25:03.255Z,100609.64
2019-03-20T06:27:29.979Z,100606.52
2019-03-20T06:29:56.723Z,100649.01
2019-03-20T06:32:23.442Z,100609.94
2019-03-20T06:34:50.156Z,100611.91
2019-03-20T06:37:16.880Z,100607.64
2019-03-20T06:39:45.712Z,100611.88
2019-03-20T06:42:12.443Z,100614.63
2019-03-20T06:44:39.168Z,100606.97
2019-03-20T06:47:05.928Z,100610.73
2019-03-20T06:49:35.660Z,100612.87
2019-03-20T06:52:02.438Z,100615.28
2019-03-20T06:54:32.312Z,100619.66
2019-03-20T06:56:59.032Z,100623.38
2019-03-20T07:00:11.548Z,100623.89
2019-03-20T07:02:41.772Z,100623.41
2019-03-20T07:05:52.030Z,100615.88
2019-03-20T07:08:21.183Z,100616.14
2019-03-20T07:11:03.874Z,100627.86
2019-03-20T07:13:30.608Z,100617.43
2019-03-20T07:16:00.616Z,100621.45
2019-03-20T07:18:29.686Z,100655.64
2019-03-20T07:20:56.415Z,100623.16
2019-03-20T07:23:23.126Z,100631.07
2019-03-20T07:25:52.504Z,100631.80
2019-03-20T07:28:19.246Z,100632.29
2019-03-20T07:30:46.258Z,100629.08
2019-03-20T07:33:13.403Z,100638.91
2019-03-20T07:35:40.137Z,100628.65
2019-03-20T07:38:06.926Z,100637.04
2019-03-20T07:40:34.716Z,100645.00
2019-03-20T07:43:08.698Z,100644.96
2019-03-20T07:45:30.078Z,100644.84
2019-03-20T07:47:56.820Z,100640.41
2019-03-20T07:50:26.837Z,100646.71
2019-03-20T07:52:53.996Z,100697.73
2019-03-20T07:55:20.742Z,100647.77
2019-03-20T07:57:55.761Z,100642.84
2019-03-20T08:00:22.490Z,100643.11
2019-03-20T08:02:49.254Z,100635.70
2019-03-20T08:05:28.490Z,100635.70
2019-03-20T08:07:46.672Z,100642.47
2019-03-20T08:10:14.680Z,100643.04
2019-03-20T08:12:44.257Z,100646.23
2019-03-20T08:15:12.314Z,100640.16
2019-03-20T08:17:39.121Z,100648.50
2019-03-20T08:20:09.593Z,100646.70
2019-03-20T08:22:36.468Z,100646.70
2019-03-20T08:25:06.651Z,100660.21
2019-03-20T08:27:35.465Z,100656.22
2019-03-20T08:30:02.275Z,100667.47
2019-03-20T08:32:28.970Z,100649.12
2019-03-20T08:34:58.449Z,100649.12
2019-03-20T08:37:25.261Z,100661.40
2019-03-20T08:39:52.254Z,100661.40
2019-03-20T08:42:21.036Z,100664.19
2019-03-20T08:44:47.772Z,100650.00
2019-03-20T08:47:14.512Z,100650.00
2019-03-20T08:49:41.291Z,100659.62
2019-03-20T08:52:12.312Z,100662.71
2019-03-20T08:54:42.444Z,100662.71
2019-03-20T08:57:09.158Z,100662.17
2019-03-20T08:59:35.886Z,100663.67
2019-03-20T09:02:02.627Z,100663.67
2019-03-20T09:04:29.628Z,100667.20
2019-03-20T09:06:56.360Z,100667.55
2019-03-20T09:09:23.127Z,100669.91
2019-03-20T09:11:50.126Z,100669.48
2019-03-20T09:14:16.860Z,100665.82
2019-03-20T09:16:43.706Z,100670.13
2019-03-20T09:19:10.555Z,100661.23
2019-03-20T09:21:37.297Z,100661.23
2019-03-20T09:24:04.187Z,100669.61
2019-03-20T09:26:30.905Z,100667.73
2019-03-20T09:28:57.653Z,100668.02
2019-03-20T09:31:24.379Z,100666.75
2019-03-20T09:33:52.571Z,100679.56
2019-03-20T09:36:19.500Z,100670.66
2019-03-20T09:38:46.715Z,100671.92
2019-03-20T09:41:13.431Z,100679.17
2019-03-20T09:43:45.865Z,100667.20
2019-03-20T09:46:12.911Z,100671.66
2019-03-20T09:48:39.649Z,100667.05
2019-03-20T09:51:06.751Z,100668.97
2019-03-20T09:53:33.625Z,100674.41
2019-03-20T09:56:00.422Z,100674.27
2019-03-20T09:58:27.291Z,100676.95
2019-03-20T10:00:54.632Z,100679.16
2019-03-20T10:03:21.321Z,100680.70
2019-03-20T10:05:48.115Z,100674.85
2019-03-20T10:08:17.830Z,100675.22
2019-03-20T10:10:44.683Z,100672.81
2019-03-20T10:13:14.287Z,100673.66
2019-03-20T10:15:41.114Z,100661.51
2019-03-20T10:18:08.227Z,100665.65
2019-03-20T10:20:35.123Z,100668.58
2019-03-20T10:23:01.882Z,100670.77
2019-03-20T10:25:28.675Z,100672.21
2019-03-20T10:27:55.849Z,100674.89
2019-03-20T10:30:22.597Z,100674.19
2019-03-20T10:32:49.335Z,100664.67
2019-03-20T10:35:16.061Z,100662.62
2019-03-20T10:37:42.747Z,100664.37
2019-03-20T10:40:12.053Z,100668.95
2019-03-20T10:42:38.835Z,100662.61
2019-03-20T10:45:07.055Z,100696.53
2019-03-20T10:47:34.180Z,100656.44
2019-03-20T10:50:01.244Z,100666.63
2019-03-20T10:52:28.267Z,100661.48
2019-03-20T10:54:55.016Z,100655.27
2019-03-20T10:57:21.733Z,100660.41
2019-03-20T10:59:48.462Z,100663.42
2019-03-20T11:02:15.307Z,100659.02
2019-03-20T11:04:42.104Z,100663.48
2019-03-20T11:07:09.127Z,100654.53
2019-03-20T11:09:39.453Z,100648.86
2019-03-20T11:12:06.171Z,100653.34
2019-03-20T11:14:33.341Z,100662.06
2019-03-20T11:17:00.127Z,100647.95
2019-03-20T11:19:26.843Z,100647.85
2019-03-20T11:21:53.535Z,100652.25
2019-03-20T11:24:22.067Z,100645.08
2019-03-20T11:26:51.432Z,100648.61
2019-03-20T11:29:21.618Z,100655.80
2019-03-20T11:31:46.792Z,100644.91
2019-03-20T11:34:15.735Z,100640.66
2019-03-20T11:36:42.699Z,100643.42
2019-03-20T11:39:09.654Z,100641.89
2019-03-20T11:41:36.407Z,100645.28
2019-03-20T11:44:03.103Z,100646.20
2019-03-20T11:46:29.818Z,100638.13
2019-03-20T11:48:58.151Z,100637.39
2019-03-20T11:51:24.919Z,100631.23
2019-03-20T11:53:51.805Z,100646.67
2019-03-20T11:56:18.624Z,100628.66
2019-03-20T11:58:45.305Z,100622.97
2019-03-20T12:01:12.177Z,100620.13
2019-03-20T12:03:39.629Z,100623.48
2019-03-20T12:06:06.342Z,100613.94
2019-03-20T12:08:33.118Z,100603.20
2019-03-20T12:10:59.947Z,100605.91
2019-03-20T12:13:26.669Z,100604.06
2019-03-20T12:15:53.395Z,100600.94
2019-03-20T12:18:20.631Z,100599.03
2019-03-20T12:20:47.411Z,100595.91
2019-03-20T12:23:14.251Z,100592.46
2019-03-20T12:25:42.715Z,100595.96
2019-03-20T12:28:12.083Z,100590.02
2019-03-20T12:30:38.812Z,100609.08
2019-03-20T12:33:05.569Z,100568.23
2019-03-20T12:35:32.321Z,100575.33
2019-03-20T12:37:59.050Z,100583.28
2019-03-20T12:40:30.078Z,100572.83
2019-03-20T12:42:56.932Z,100566.55
2019-03-20T12:45:25.721Z,100579.02
2019-03-20T12:47:52.783Z,100595.01
2019-03-20T12:50:19.720Z,100564.81
2019-03-20T12:52:46.422Z,100558.63
2019-03-20T12:55:13.371Z,100558.70
2019-03-20T12:57:40.150Z,100559.92
2019-03-20T13:00:10.885Z,100599.75
2019-03-20T13:02:37.679Z,100555.73
2019-03-20T13:05:04.737Z,100561.25
2019-03-20T13:07:31.501Z,100548.17
2019-03-20T13:10:03.255Z,100557.03
2019-03-20T13:12:47.517Z,100566.15
2019-03-20T13:15:16.803Z,100571.77
2019-03-20T13:17:43.805Z,100559.55
2019-03-20T13:20:10.583Z,100546.41
2019-03-20T13:22:37.339Z,100561.27
2019-03-20T13:25:05.893Z,100553.42
2019-03-20T13:27:33.954Z,100545.50
2019-03-20T13:30:00.941Z,100549.30
2019-03-20T13:32:27.675Z,100546.42
2019-03-20T13:34:54.382Z,100546.77
2019-03-20T13:37:21.088Z,100543.34
2019-03-20T13:39:48.067Z,100553.28
2019-03-20T13:42:14.867Z,100539.27
2019-03-20T13:44:42.055Z,100537.16
2019-03-20T13:47:11.111Z,100537.01
2019-03-20T13:49:38.193Z,100533.59
2019-03-20T13:52:05.031Z,100533.73
2019-03-20T13:54:36.605Z,100533.95
2019-03-20T13:57:03.338Z,100541.65
2019-03-20T13:59:30.118Z,100536.75
2019-03-20T14:01:56.939Z,100538.06
2019-03-20T14:04:23.845Z,100531.77
2019-03-20T14:06:50.830Z,100544.28
2019-03-20T14:09:19.913Z,100541.93
2019-03-20T14:11:47.733Z,100546.55
2019-03-20T14:14:14.733Z,100542.59
2019-03-20T14:16:44.720Z,100537.55
2019-03-20T14:19:14.420Z,100560.64
2019-03-20T14:21:41.321Z,100543.08
2019-03-20T14:24:08.316Z,100543.62
2019-03-20T14:26:35.034Z,100540.53
2019-03-20T14:29:01.783Z,100535.95
2019-03-20T14:31:35.394Z,100540.08
2019-03-20T14:34:02.234Z,100532.90
2019-03-20T14:36:29.541Z,100520.38
2019-03-20T14:38:56.650Z,100546.30
2019-03-20T14:41:24.189Z,100531.31
2019-03-20T14:43:51.645Z,100530.88
2019-03-20T14:46:21.700Z,100545.32
2019-03-20T14:48:48.424Z,100535.56
2019-03-20T14:51:15.155Z,100530.52
2019-03-20T14:53:41.896Z,100527.44
2019-03-20T14:56:08.917Z,100564.23
2019-03-20T14:58:37.529Z,100525.23
2019-03-20T15:01:04.646Z,100523.73
2019-03-20T15:03:31.566Z,100526.57
2019-03-20T15:05:58.334Z,100530.72
2019-03-20T15:08:25.296Z,100530.44
2019-03-20T15:10:52.116Z,100572.16
2019-03-20T15:13:19.006Z,100542.00
2019-03-20T15:16:00.999Z,100537.20
2019-03-20T15:18:30.896Z,100539.53
2019-03-20T15:20:57.852Z,100562.52
2019-03-20T15:23:27.865Z,100532.47
2019-03-20T15:25:54.760Z,100552.82
2019-03-20T15:28:21.534Z,100523.23
2019-03-20T15:30:48.259Z,100527.34
2019-03-20T15:33:15.280Z,100532.46
2019-03-20T15:35:42.388Z,100528.42
2019-03-20T15:38:09.093Z,100524.19
2019-03-20T15:40:35.811Z,100521.91
2019-03-20T15:43:02.768Z,100534.47
2019-03-20T15:45:29.998Z,100528.34
2019-03-20T15:47:56.710Z,100547.09
2019-03-20T15:50:23.426Z,100541.21
2019-03-20T15:52:50.706Z,100533.17
2019-03-20T15:55:23.605Z,100582.80
2019-03-20T15:57:53.186Z,100542.42
2019-03-20T16:00:19.926Z,100551.63
2019-03-20T16:02:48.066Z,100549.73
2019-03-20T16:05:14.798Z,100566.78
2019-03-20T16:07:41.746Z,100560.59
2019-03-20T16:10:13.814Z,100552.17
2019-03-20T16:12:42.210Z,100542.45
2019-03-20T16:15:12.984Z,100558.28
2019-03-20T16:17:40.052Z,100551.47
2019-03-20T16:20:08.020Z,100551.78
2019-03-20T16:22:34.790Z,100553.89
2019-03-20T16:25:01.704Z,100557.36
2019-03-20T16:27:28.571Z,100557.08
2019-03-20T16:29:55.361Z,100548.80
2019-03-20T16:32:22.545Z,100559.28
2019-03-20T16:34:49.705Z,100559.37
2019-03-20T16:37:16.428Z,100557.98
2019-03-20T16:39:43.167Z,100552.39
2019-03-20T16:42:09.928Z,100559.83
2019-03-20T16:44:36.751Z,100562.48
2019-03-20T16:47:05.375Z,100562.31
2019-03-20T16:49:32.474Z,100575.57
2019-03-20T16:51:59.980Z,100569.33
2019-03-20T16:54:26.737Z,100567.98
2019-03-20T16:56:53.556Z,100560.13
2019-03-20T16:59:23.731Z,100586.71
2019-03-20T17:01:50.433Z,100603.27
2019-03-20T17:04:18.364Z,100552.41
2019-03-20T17:06:45.217Z,100559.05
2019-03-20T17:09:11.946Z,100552.46
2019-03-20T17:11:38.856Z,100559.75
2019-03-20T17:14:06.026Z,100561.52
2019-03-20T17:16:32.840Z,100560.52
2019-03-20T17:18:59.567Z,100558.42
2019-03-20T17:21:26.296Z,100559.40
2019-03-20T17:23:54.805Z,100557.59
2019-03-20T17:26:21.561Z,100560.64
2019-03-20T17:28:48.602Z,100551.97
2019-03-20T17:31:15.352Z,100559.73
2019-03-20T17:33:42.126Z,100558.92
2019-03-20T17:36:09.007Z,100560.59
2019-03-20T17:38:40.688Z,100564.22
2019-03-20T17:41:07.380Z,100560.95
2019-03-20T17:43:34.120Z,100567.45
2019-03-20T17:46:00.924Z,100564.03
2019-03-20T17:48:28.200Z,100565.17
2019-03-20T17:50:55.154Z,100562.06
2019-03-20T17:53:21.990Z,100561.97
2019-03-20T17:55:48.755Z,100566.71
2019-03-20T17:58:15.589Z,100565.87
2019-03-20T18:00:44.881Z,100571.60
2019-03-20T18:03:27.825Z,100572.88
2019-03-20T18:06:01.146Z,100566.78
2019-03-20T18:08:28.110Z,100574.69
2019-03-20T18:10:54.966Z,100580.56
2019-03-20T18:13:22.414Z,100579.53
2019-03-20T18:15:49.158Z,100618.39
2019-03-20T18:18:15.918Z,100582.14
2019-03-20T18:20:44.188Z,100585.85
2019-03-20T18:23:14.340Z,100591.96
2019-03-20T18:25:42.301Z,100591.23
2019-03-20T18:28:09.388Z,100584.12
2019-03-20T18:30:36.567Z,100587.77
2019-03-20T18:33:04.349Z,100586.52
2019-03-20T18:35:31.108Z,100589.51
2019-03-20T18:37:57.941Z,100591.70
2019-03-20T18:40:32.690Z,100585.87
2019-03-20T18:43:04.363Z,100589.63
2019-03-20T18:45:31.072Z,100587.62
2019-03-20T18:47:57.857Z,100592.95
2019-03-20T18:50:24.949Z,100594.01
2019-03-20T18:52:55.003Z,100593.66
2019-03-20T18:55:21.757Z,100625.27
2019-03-20T18:57:48.523Z,100593.75
2019-03-20T19:00:20.504Z,100591.59
2019-03-20T19:02:50.926Z,100592.64
2019-03-20T19:05:23.465Z,100610.24
2019-03-20T19:07:50.287Z,100608.56
2019-03-20T19:10:17.109Z,100604.61
2019-03-20T19:12:43.833Z,100606.22
2019-03-20T19:15:16.154Z,100607.11
2019-03-20T19:17:42.912Z,100615.08
2019-03-20T19:20:12.081Z,100613.37
2019-03-20T19:22:38.820Z,100620.81
2019-03-20T19:25:06.862Z,100620.92
2019-03-20T19:27:33.660Z,100626.35
2019-03-20T19:30:00.461Z,100617.75
2019-03-20T19:32:27.222Z,100622.25
2019-03-20T19:34:53.979Z,100632.20
2019-03-20T19:37:21.646Z,100629.92
2019-03-20T19:39:49.614Z,100631.13
2019-03-20T19:42:20.155Z,100628.33
2019-03-20T19:44:45.100Z,100629.63
2019-03-20T19:47:11.845Z,100627.84
2019-03-20T19:49:39.012Z,100621.68
2019-03-20T19:52:05.750Z,100631.13
2019-03-20T19:54:32.616Z,100630.02
2019-03-20T19:56:59.533Z,100624.75
2019-03-20T19:59:26.412Z,100616.06
2019-03-20T20:01:53.155Z,100623.63
2019-03-20T20:04:19.943Z,100628.66
2019-03-20T20:06:47.471Z,100626.34
2019-03-20T20:09:14.387Z,100657.42
2019-03-20T20:11:44.212Z,100636.87
2019-03-20T20:14:11.849Z,100634.31
2019-03-20T20:16:38.562Z,100659.73
2019-03-20T20:19:05.547Z,100657.33
2019-03-20T20:21:32.284Z,100647.07
2019-03-20T20:23:59.015Z,100645.25
2019-03-20T20:26:26.049Z,100640.40
2019-03-20T20:28:52.799Z,100650.54
2019-03-20T20:31:19.564Z,100654.83
2019-03-20T20:33:46.273Z,100652.91
2019-03-20T20:36:13.007Z,100657.86
2019-03-20T20:38:40.169Z,100667.87
2019-03-20T20:41:06.919Z,100664.20
2019-03-20T20:43:34.469Z,100679.50
2019-03-20T20:46:01.713Z,100664.91
2019-03-20T20:48:28.509Z,100666.02
2019-03-20T20:50:55.396Z,100670.83
2019-03-20T20:53:22.137Z,100671.80
2019-03-20T20:55:48.977Z,100675.41
2019-03-20T20:58:15.749Z,100665.91
2019-03-20T21:00:42.659Z,100671.14
2019-03-20T21:03:09.521Z,100673.80
2019-03-20T21:05:36.227Z,100664.91
2019-03-20T21:08:02.984Z,100666.52
2019-03-20T21:10:29.744Z,100670.73
2019-03-20T21:12:57.617Z,100667.61
2019-03-20T21:15:52.013Z,100669.88
2019-03-20T21:19:01.009Z,100669.17
2019-03-20T21:21:44.568Z,100676.72
2019-03-20T21:24:24.080Z,100668.44
2019-03-20T21:27:30.082Z,100667.28
2019-03-20T21:30:28.745Z,100660.83
2019-03-20T21:32:56.464Z,100661.20
2019-03-20T21:36:16.678Z,100663.84
2019-03-20T21:38:45.459Z,100665.61
2019-03-20T21:41:50.781Z,100667.13
2019-03-20T21:45:06.087Z,100665.86
2019-03-20T21:47:35.743Z,100668.48
2019-03-20T21:50:55.711Z,100653.48
2019-03-20T21:53:48.465Z,100660.57
2019-03-20T21:56:23.192Z,100674.64
2019-03-20T21:59:13.767Z,100661.68
2019-03-20T22:02:18.745Z,100661.60
2019-03-20T22:04:46.046Z,100625.09
2019-03-20T22:07:13.411Z,100675.66
2019-03-20T22:10:30.035Z,100674.87
2019-03-20T22:13:18.809Z,100672.85
2019-03-20T22:16:22.313Z,100675.08
2019-03-20T22:19:39.402Z,100677.45
2019-03-20T22:22:34.591Z,100672.85
2019-03-20T22:25:52.893Z,100694.45
2019-03-20T22:29:26.202Z,100667.30
2019-03-20T22:32:19.553Z,100652.51
2019-03-20T22:35:19.034Z,100667.91
2019-03-20T22:37:46.327Z,100662.98
2019-03-20T22:41:04.052Z,100662.98
2019-03-20T22:43:40.695Z,100674.29
2019-03-20T22:46:49.286Z,100674.29
2019-03-20T22:49:53.041Z,100665.38
2019-03-20T22:52:44.339Z,100672.23
2019-03-20T22:55:35.663Z,100671.27
2019-03-20T22:58:43.767Z,100671.27
2019-03-20T23:01:35.074Z,100663.05
2019-03-20T23:04:07.672Z,100668.44
2019-03-20T23:06:34.950Z,100664.52
2019-03-20T23:09:03.657Z,100671.26
2019-03-20T23:11:31.232Z,100671.26
2019-03-20T23:13:58.533Z,100667.02
2019-03-20T23:16:26.308Z,100667.02
2019-03-20T23:18:53.678Z,100659.81
2019-03-20T23:21:20.958Z,100660.82
2019-03-20T23:23:48.232Z,100660.42
2019-03-20T23:26:15.819Z,100652.62
2019-03-20T23:28:43.110Z,100645.17
2019-03-20T23:31:10.348Z,100653.33
2019-03-20T23:33:37.821Z,100653.33
2019-03-20T23:36:05.755Z,100644.59
2019-03-20T23:38:33.795Z,100637.78
2019-03-20T23:41:01.087Z,100645.36
2019-03-20T23:43:28.353Z,100645.61
2019-03-20T23:45:55.701Z,100638.84
2019-03-20T23:48:30.701Z,100650.56
2019-03-20T23:51:05.255Z,100646.08
2019-03-20T23:53:33.174Z,100646.08
2019-03-20T23:56:00.564Z,100650.73
2019-03-20T23:58:27.942Z,100650.73
